EST,Max TemperatureF,Mean TemperatureF,Min TemperatureF,Max Dew PointF,MeanDew PointF,Min DewpointF,Max Humidity, Mean Humidity, Min Humidity, Max Sea Level PressureIn, Mean Sea Level PressureIn, Min Sea Level PressureIn, Max VisibilityMiles, Mean VisibilityMiles, Min VisibilityMiles, Max Wind SpeedMPH, Mean Wind SpeedMPH, Max Gust SpeedMPH,PrecipitationIn, CloudCover, Events, WindDirDegrees
2012-2-1,55,42,30,42,33,27,100,77,55,30.02,29.90,29.78,10,7,4,17,3,30,0.06,5,Rain,272
2012-2-2,39,36,30,30,27,18,89,72,56,30.21,30.07,29.99,10,10,10,10,2,,0.00,7,,35
2012-2-3,39,30,21,19,12,8,65,48,29,30.39,30.33,30.25,10,10,10,15,8,23,0.00,2,,312
2012-2-4,41,32,24,23,18,11,88,59,38,30.25,30.19,30.13,10,10,10,15,3,21,0.00,2,,336
2012-2-5,37,27,17,15,10,5,74,53,27,30.19,30.13,30.08,10,10,10,9,2,,0.00,0,,330
2012-2-6,51,38,26,21,19,14,63,44,26,30.07,29.92,29.84,10,10,10,15,6,23,0.00,0,,254
2012-2-7,44,34,24,27,22,16,81,60,40,30.24,30.03,29.88,10,10,7,13,3,25,0.00,5,,323
2012-2-8,39,28,17,15,9,3,78,48,22,30.32,30.21,30.07,10,10,10,6,3,,0.00,3,,210
2012-2-9,46,35,23,17,13,10,74,44,23,30.11,30.04,29.98,10,10,10,13,4,16,0.00,1,,304
2012-2-10,48,36,24,25,18,13,75,46,28,30.10,30.00,29.88,10,10,10,13,5,25,0.00,1,,215
2012-2-11,39,34,26,25,20,10,75,55,43,29.88,29.69,29.57,10,10,8,17,7,24,0.00,5,,344
2012-2-12,26,20,14,5,-1,-5,47,41,32,29.90,29.73,29.62,10,10,10,26,15,37,0.00,1,,310
2012-2-13,39,26,14,18,13,-1,71,54,35,29.98,29.88,29.82,10,10,7,16,7,31,0.00,3,Snow,236
2012-2-14,44,34,25,20,14,8,66,46,24,30.11,30.06,29.99,10,10,10,12,2,16,0.00,5,,189
2012-2-15,45,38,30,34,28,19,89,70,59,30.26,30.17,30.10,10,10,7,5,0,,0.00,7,,49
2012-2-16,45,36,26,36,31,23,93,82,49,30.29,30.16,30.03,10,8,5,9,2,,0.02,5,Rain,166
2012-2-17,48,38,27,38,30,19,97,70,38,30.02,29.94,29.87,10,9,4,14,6,22,0.00,5,,256
2012-2-18,45,38,32,29,23,17,88,57,34,29.99,29.92,29.85,10,10,8,16,8,23,0.00,4,Rain-Snow,285
2012-2-19,44,34,23,26,19,14,85,57,34,30.08,30.03,29.99,10,10,10,12,5,,0.00,0,,324
2012-2-20,39,29,19,15,11,4,81,50,24,30.32,30.15,30.02,10,10,10,23,6,31,0.00,0,,340
2012-2-21,44,32,19,34,21,12,87,64,28,30.34,30.12,29.85,10,10,7,16,4,21,0.00,3,Snow,160
2012-2-22,54,43,32,36,28,21,96,61,28,29.83,29.66,29.53,10,9,5,16,5,25,0.00,1,,202
2012-2-23,52,42,33,40,30,21,85,64,37,29.78,29.50,29.38,10,10,8,22,6,33,0.02,3,Rain,296
2012-2-24,37,34,30,36,31,24,100,87,67,29.80,29.57,29.23,10,6,2,12,2,,0.75,7,Rain-Snow,40
2012-2-25,42,36,30,32,21,15,89,55,35,29.82,29.42,29.22,10,9,2,26,16,53,0.00,5,Rain-Snow,278
2012-2-26,39,32,25,15,5,0,54,34,19,30.45,30.25,29.86,10,10,10,23,14,32,0.00,0,,293
2012-2-27,48,34,19,31,21,9,74,52,36,30.46,30.25,30.04,10,10,10,16,4,22,0.00,4,,203
2012-2-28,44,36,28,26,19,12,64,46,30,30.40,30.27,30.05,10,10,10,22,12,30,0.00,2,,307
2012-2-29,34,32,30,29,25,14,93,81,46,30.40,30.17,29.93,10,3,0,8,2,,0.27,8,Fog-Snow,92